sensor_id;sensor_type;location;lat;lon;timestamp;P1;durP1;ratioP1;P2;durP2;ratioP2
37943;SDS011;23767;42.024;23.086;2023-07-16T00:00:13;12.75;;;10.23;;
37943;SDS011;23767;42.024;23.086;2023-07-16T00:02:40;16.60;;;10.52;;
37943;SDS011;23767;42.024;23.086;2023-07-16T00:05:06;14.20;;;10.13;;
37943;SDS011;23767;42.024;23.086;2023-07-16T00:07:32;12.45;;;9.95;;
37943;SDS011;23767;42.024;23.086;2023-07-16T00:09:58;16.02;;;10.60;;
37943;SDS011;23767;42.024;23.086;2023-07-16T00:12:24;16.75;;;10.85;;
37943;SDS011;23767;42.024;23.086;2023-07-16T00:14:50;15.52;;;10.90;;
37943;SDS011;23767;42.024;23.086;2023-07-16T00:17:16;12.68;;;10.10;;
37943;SDS011;23767;42.024;23.086;2023-07-16T00:19:42;12.50;;;10.93;;
37943;SDS011;23767;42.024;23.086;2023-07-16T00:22:08;16.33;;;10.80;;
37943;SDS011;23767;42.024;23.086;2023-07-16T00:24:34;12.40;;;10.00;;
37943;SDS011;23767;42.024;23.086;2023-07-16T00:27:00;11.60;;;9.60;;
37943;SDS011;23767;42.024;23.086;2023-07-16T00:29:26;11.35;;;10.18;;
37943;SDS011;23767;42.024;23.086;2023-07-16T00:31:52;13.00;;;10.73;;
37943;SDS011;23767;42.024;23.086;2023-07-16T00:34:18;12.23;;;9.80;;
37943;SDS011;23767;42.024;23.086;2023-07-16T00:36:44;14.05;;;10.40;;
37943;SDS011;23767;42.024;23.086;2023-07-16T00:39:10;16.35;;;10.77;;
37943;SDS011;23767;42.024;23.086;2023-07-16T00:41:36;15.00;;;10.23;;
37943;SDS011;23767;42.024;23.086;2023-07-16T00:44:02;16.05;;;11.20;;
37943;SDS011;23767;42.024;23.086;2023-07-16T00:46:28;12.02;;;9.90;;
37943;SDS011;23767;42.024;23.086;2023-07-16T00:48:54;12.25;;;10.55;;
37943;SDS011;23767;42.024;23.086;2023-07-16T00:51:21;15.32;;;10.93;;
37943;SDS011;23767;42.024;23.086;2023-07-16T00:53:47;11.70;;;10.18;;
37943;SDS011;23767;42.024;23.086;2023-07-16T00:56:15;11.73;;;10.07;;
37943;SDS011;23767;42.024;23.086;2023-07-16T00:58:45;14.38;;;10.40;;
37943;SDS011;23767;42.024;23.086;2023-07-16T01:01:11;12.88;;;10.18;;
37943;SDS011;23767;42.024;23.086;2023-07-16T01:03:37;15.73;;;11.10;;
37943;SDS011;23767;42.024;23.086;2023-07-16T01:08:41;15.05;;;10.80;;
37943;SDS011;23767;42.024;23.086;2023-07-16T01:11:07;14.88;;;10.98;;
37943;SDS011;23767;42.024;23.086;2023-07-16T01:13:34;13.63;;;10.82;;
37943;SDS011;23767;42.024;23.086;2023-07-16T01:16:00;12.65;;;10.65;;
37943;SDS011;23767;42.024;23.086;2023-07-16T01:18:26;15.20;;;10.57;;
37943;SDS011;23767;42.024;23.086;2023-07-16T01:20:55;13.52;;;10.95;;
37943;SDS011;23767;42.024;23.086;2023-07-16T01:25:55;13.65;;;10.18;;
37943;SDS011;23767;42.024;23.086;2023-07-16T01:30:54;12.70;;;10.65;;
37943;SDS011;23767;42.024;23.086;2023-07-16T01:33:21;14.63;;;10.65;;
37943;SDS011;23767;42.024;23.086;2023-07-16T01:35:47;16.30;;;10.55;;
37943;SDS011;23767;42.024;23.086;2023-07-16T01:38:14;13.30;;;10.75;;
37943;SDS011;23767;42.024;23.086;2023-07-16T01:40:43;11.55;;;10.23;;
37943;SDS011;23767;42.024;23.086;2023-07-16T01:43:09;14.57;;;10.48;;
37943;SDS011;23767;42.024;23.086;2023-07-16T01:45:35;13.93;;;10.20;;
37943;SDS011;23767;42.024;23.086;2023-07-16T01:50:36;14.05;;;10.50;;
37943;SDS011;23767;42.024;23.086;2023-07-16T01:53:02;13.85;;;10.50;;
37943;SDS011;23767;42.024;23.086;2023-07-16T01:55:28;14.25;;;11.32;;
37943;SDS011;23767;42.024;23.086;2023-07-16T01:57:54;14.77;;;10.40;;
37943;SDS011;23767;42.024;23.086;2023-07-16T02:00:20;15.63;;;10.98;;
37943;SDS011;23767;42.024;23.086;2023-07-16T02:02:46;14.45;;;10.75;;
37943;SDS011;23767;42.024;23.086;2023-07-16T02:05:12;14.75;;;10.20;;
37943;SDS011;23767;42.024;23.086;2023-07-16T02:07:38;15.55;;;10.18;;
37943;SDS011;23767;42.024;23.086;2023-07-16T02:10:05;12.23;;;9.98;;
37943;SDS011;23767;42.024;23.086;2023-07-16T02:12:31;13.30;;;10.25;;
37943;SDS011;23767;42.024;23.086;2023-07-16T02:14:57;14.38;;;10.30;;
37943;SDS011;23767;42.024;23.086;2023-07-16T02:17:23;13.05;;;10.52;;
37943;SDS011;23767;42.024;23.086;2023-07-16T02:19:49;14.55;;;9.77;;
37943;SDS011;23767;42.024;23.086;2023-07-16T02:22:15;14.13;;;10.50;;
37943;SDS011;23767;42.024;23.086;2023-07-16T02:24:41;12.95;;;10.40;;
37943;SDS011;23767;42.024;23.086;2023-07-16T02:27:07;13.32;;;10.45;;
37943;SDS011;23767;42.024;23.086;2023-07-16T02:29:33;15.02;;;10.57;;
37943;SDS011;23767;42.024;23.086;2023-07-16T02:31:59;13.13;;;10.70;;
37943;SDS011;23767;42.024;23.086;2023-07-16T02:34:25;12.98;;;10.82;;
37943;SDS011;23767;42.024;23.086;2023-07-16T02:36:51;15.43;;;10.75;;
37943;SDS011;23767;42.024;23.086;2023-07-16T02:39:17;13.35;;;11.25;;
37943;SDS011;23767;42.024;23.086;2023-07-16T02:41:43;13.40;;;10.77;;
37943;SDS011;23767;42.024;23.086;2023-07-16T02:44:09;13.55;;;10.50;;
37943;SDS011;23767;42.024;23.086;2023-07-16T02:46:35;13.30;;;11.07;;
37943;SDS011;23767;42.024;23.086;2023-07-16T02:49:02;12.02;;;10.38;;
37943;SDS011;23767;42.024;23.086;2023-07-16T02:51:29;15.30;;;10.98;;
37943;SDS011;23767;42.024;23.086;2023-07-16T02:53:55;17.10;;;10.88;;
37943;SDS011;23767;42.024;23.086;2023-07-16T02:56:21;14.50;;;10.80;;
37943;SDS011;23767;42.024;23.086;2023-07-16T02:58:47;16.92;;;11.05;;
37943;SDS011;23767;42.024;23.086;2023-07-16T03:01:13;17.52;;;11.70;;
37943;SDS011;23767;42.024;23.086;2023-07-16T03:03:39;14.60;;;10.98;;
37943;SDS011;23767;42.024;23.086;2023-07-16T03:06:05;13.93;;;11.40;;
37943;SDS011;23767;42.024;23.086;2023-07-16T03:08:31;13.77;;;11.00;;
37943;SDS011;23767;42.024;23.086;2023-07-16T03:10:57;13.57;;;11.02;;
37943;SDS011;23767;42.024;23.086;2023-07-16T03:13:23;17.30;;;12.43;;
37943;SDS011;23767;42.024;23.086;2023-07-16T03:15:49;14.50;;;11.75;;
37943;SDS011;23767;42.024;23.086;2023-07-16T03:18:17;16.17;;;11.43;;
37943;SDS011;23767;42.024;23.086;2023-07-16T03:20:43;12.45;;;10.48;;
37943;SDS011;23767;42.024;23.086;2023-07-16T03:23:09;13.90;;;10.80;;
37943;SDS011;23767;42.024;23.086;2023-07-16T03:25:35;16.92;;;11.43;;
37943;SDS011;23767;42.024;23.086;2023-07-16T03:28:01;15.52;;;12.43;;
37943;SDS011;23767;42.024;23.086;2023-07-16T03:30:28;14.18;;;11.18;;
37943;SDS011;23767;42.024;23.086;2023-07-16T03:32:55;14.13;;;11.25;;
37943;SDS011;23767;42.024;23.086;2023-07-16T03:35:21;17.67;;;11.50;;
37943;SDS011;23767;42.024;23.086;2023-07-16T03:37:47;14.55;;;10.85;;
37943;SDS011;23767;42.024;23.086;2023-07-16T03:40:14;13.80;;;10.93;;
37943;SDS011;23767;42.024;23.086;2023-07-16T03:42:40;16.20;;;11.13;;
37943;SDS011;23767;42.024;23.086;2023-07-16T03:45:07;14.63;;;11.15;;
37943;SDS011;23767;42.024;23.086;2023-07-16T03:47:33;15.52;;;11.00;;
37943;SDS011;23767;42.024;23.086;2023-07-16T03:49:59;16.50;;;11.25;;
37943;SDS011;23767;42.024;23.086;2023-07-16T03:52:25;12.93;;;10.40;;
37943;SDS011;23767;42.024;23.086;2023-07-16T03:54:51;14.85;;;11.10;;
37943;SDS011;23767;42.024;23.086;2023-07-16T03:57:17;15.02;;;10.60;;
37943;SDS011;23767;42.024;23.086;2023-07-16T03:59:43;13.52;;;10.85;;
37943;SDS011;23767;42.024;23.086;2023-07-16T04:02:09;14.73;;;10.85;;
37943;SDS011;23767;42.024;23.086;2023-07-16T04:04:35;15.27;;;10.25;;
37943;SDS011;23767;42.024;23.086;2023-07-16T04:07:01;12.40;;;9.90;;
37943;SDS011;23767;42.024;23.086;2023-07-16T04:09:27;13.55;;;10.93;;
37943;SDS011;23767;42.024;23.086;2023-07-16T04:11:53;11.80;;;10.38;;
37943;SDS011;23767;42.024;23.086;2023-07-16T04:14:19;14.43;;;11.00;;
37943;SDS011;23767;42.024;23.086;2023-07-16T04:16:45;11.93;;;10.38;;
37943;SDS011;23767;42.024;23.086;2023-07-16T04:19:12;16.73;;;10.55;;
37943;SDS011;23767;42.024;23.086;2023-07-16T04:21:38;13.88;;;10.35;;
37943;SDS011;23767;42.024;23.086;2023-07-16T04:24:04;15.65;;;10.65;;
37943;SDS011;23767;42.024;23.086;2023-07-16T04:26:31;16.10;;;10.38;;
37943;SDS011;23767;42.024;23.086;2023-07-16T04:28:57;12.32;;;9.80;;
37943;SDS011;23767;42.024;23.086;2023-07-16T04:31:23;13.85;;;9.93;;
37943;SDS011;23767;42.024;23.086;2023-07-16T04:33:50;15.93;;;10.38;;
37943;SDS011;23767;42.024;23.086;2023-07-16T04:36:16;19.67;;;11.63;;
37943;SDS011;23767;42.024;23.086;2023-07-16T04:38:42;15.48;;;10.13;;
37943;SDS011;23767;42.024;23.086;2023-07-16T04:41:08;14.68;;;10.45;;
37943;SDS011;23767;42.024;23.086;2023-07-16T04:43:34;13.65;;;9.77;;
37943;SDS011;23767;42.024;23.086;2023-07-16T04:46:00;13.98;;;11.07;;
37943;SDS011;23767;42.024;23.086;2023-07-16T04:48:26;16.05;;;10.70;;
37943;SDS011;23767;42.024;23.086;2023-07-16T04:50:52;13.00;;;11.20;;
37943;SDS011;23767;42.024;23.086;2023-07-16T04:53:18;13.82;;;10.90;;
37943;SDS011;23767;42.024;23.086;2023-07-16T04:55:44;19.27;;;11.05;;
37943;SDS011;23767;42.024;23.086;2023-07-16T04:58:13;13.05;;;11.27;;
37943;SDS011;23767;42.024;23.086;2023-07-16T05:03:15;13.70;;;10.63;;
37943;SDS011;23767;42.024;23.086;2023-07-16T05:05:41;16.02;;;10.88;;
37943;SDS011;23767;42.024;23.086;2023-07-16T05:08:07;13.13;;;10.60;;
37943;SDS011;23767;42.024;23.086;2023-07-16T05:10:33;13.75;;;10.23;;
37943;SDS011;23767;42.024;23.086;2023-07-16T05:12:59;16.17;;;10.70;;
37943;SDS011;23767;42.024;23.086;2023-07-16T05:15:28;12.98;;;11.63;;
37943;SDS011;23767;42.024;23.086;2023-07-16T05:17:54;15.55;;;11.52;;
37943;SDS011;23767;42.024;23.086;2023-07-16T05:20:22;15.15;;;10.45;;
37943;SDS011;23767;42.024;23.086;2023-07-16T05:22:48;13.70;;;10.43;;
37943;SDS011;23767;42.024;23.086;2023-07-16T05:25:14;14.93;;;10.25;;
37943;SDS011;23767;42.024;23.086;2023-07-16T05:27:40;13.93;;;11.38;;
37943;SDS011;23767;42.024;23.086;2023-07-16T05:30:07;20.90;;;11.18;;
37943;SDS011;23767;42.024;23.086;2023-07-16T05:32:33;13.32;;;11.02;;
37943;SDS011;23767;42.024;23.086;2023-07-16T05:34:59;14.07;;;10.55;;
37943;SDS011;23767;42.024;23.086;2023-07-16T05:37:25;15.90;;;10.57;;
37943;SDS011;23767;42.024;23.086;2023-07-16T05:39:51;16.08;;;10.45;;
37943;SDS011;23767;42.024;23.086;2023-07-16T05:42:17;12.13;;;10.85;;
37943;SDS011;23767;42.024;23.086;2023-07-16T05:44:43;16.27;;;10.63;;
37943;SDS011;23767;42.024;23.086;2023-07-16T05:47:10;15.48;;;10.68;;
37943;SDS011;23767;42.024;23.086;2023-07-16T05:49:36;13.55;;;10.40;;
37943;SDS011;23767;42.024;23.086;2023-07-16T05:52:02;14.90;;;10.45;;
37943;SDS011;23767;42.024;23.086;2023-07-16T05:54:28;12.80;;;9.98;;
37943;SDS011;23767;42.024;23.086;2023-07-16T05:56:54;12.93;;;10.13;;
37943;SDS011;23767;42.024;23.086;2023-07-16T05:59:20;15.25;;;10.40;;
37943;SDS011;23767;42.024;23.086;2023-07-16T06:01:46;15.30;;;10.10;;
37943;SDS011;23767;42.024;23.086;2023-07-16T06:04:12;15.30;;;9.88;;
37943;SDS011;23767;42.024;23.086;2023-07-16T06:06:38;12.77;;;10.02;;
37943;SDS011;23767;42.024;23.086;2023-07-16T06:09:04;13.50;;;9.95;;
37943;SDS011;23767;42.024;23.086;2023-07-16T06:11:30;11.35;;;8.82;;
37943;SDS011;23767;42.024;23.086;2023-07-16T06:13:56;13.15;;;8.75;;
37943;SDS011;23767;42.024;23.086;2023-07-16T06:16:22;14.35;;;9.48;;
37943;SDS011;23767;42.024;23.086;2023-07-16T06:18:48;14.30;;;8.68;;
37943;SDS011;23767;42.024;23.086;2023-07-16T06:21:15;11.57;;;8.30;;
37943;SDS011;23767;42.024;23.086;2023-07-16T06:23:41;11.27;;;8.13;;
37943;SDS011;23767;42.024;23.086;2023-07-16T06:26:07;14.57;;;9.27;;
37943;SDS011;23767;42.024;23.086;2023-07-16T06:28:34;13.07;;;8.68;;
37943;SDS011;23767;42.024;23.086;2023-07-16T06:31:00;13.77;;;9.82;;
37943;SDS011;23767;42.024;23.086;2023-07-16T06:33:26;12.38;;;9.18;;
37943;SDS011;23767;42.024;23.086;2023-07-16T06:35:53;12.27;;;8.70;;
37943;SDS011;23767;42.024;23.086;2023-07-16T06:38:19;11.80;;;9.35;;
37943;SDS011;23767;42.024;23.086;2023-07-16T06:40:45;10.15;;;7.95;;
37943;SDS011;23767;42.024;23.086;2023-07-16T06:43:12;14.88;;;8.77;;
37943;SDS011;23767;42.024;23.086;2023-07-16T06:45:38;12.18;;;8.88;;
37943;SDS011;23767;42.024;23.086;2023-07-16T06:48:04;15.68;;;8.65;;
37943;SDS011;23767;42.024;23.086;2023-07-16T06:50:30;12.07;;;8.02;;
37943;SDS011;23767;42.024;23.086;2023-07-16T06:52:56;12.95;;;7.97;;
37943;SDS011;23767;42.024;23.086;2023-07-16T06:55:22;12.10;;;7.35;;
37943;SDS011;23767;42.024;23.086;2023-07-16T06:57:48;9.43;;;7.20;;
37943;SDS011;23767;42.024;23.086;2023-07-16T07:00:15;13.10;;;7.90;;
37943;SDS011;23767;42.024;23.086;2023-07-16T07:02:41;10.95;;;7.57;;
37943;SDS011;23767;42.024;23.086;2023-07-16T07:05:07;10.45;;;7.53;;
37943;SDS011;23767;42.024;23.086;2023-07-16T07:07:33;9.50;;;7.40;;
37943;SDS011;23767;42.024;23.086;2023-07-16T07:10:00;10.02;;;7.57;;
37943;SDS011;23767;42.024;23.086;2023-07-16T07:12:26;10.90;;;7.70;;
37943;SDS011;23767;42.024;23.086;2023-07-16T07:14:52;13.13;;;7.10;;
37943;SDS011;23767;42.024;23.086;2023-07-16T07:17:18;9.48;;;7.75;;
37943;SDS011;23767;42.024;23.086;2023-07-16T07:19:44;13.85;;;7.70;;
37943;SDS011;23767;42.024;23.086;2023-07-16T07:22:10;8.75;;;7.40;;
37943;SDS011;23767;42.024;23.086;2023-07-16T07:24:36;13.73;;;8.43;;
37943;SDS011;23767;42.024;23.086;2023-07-16T07:27:02;12.27;;;7.85;;
37943;SDS011;23767;42.024;23.086;2023-07-16T07:29:28;11.55;;;7.95;;
37943;SDS011;23767;42.024;23.086;2023-07-16T07:31:54;11.80;;;8.00;;
37943;SDS011;23767;42.024;23.086;2023-07-16T07:34:20;12.93;;;7.82;;
37943;SDS011;23767;42.024;23.086;2023-07-16T07:36:46;11.55;;;6.90;;
37943;SDS011;23767;42.024;23.086;2023-07-16T07:39:13;12.10;;;7.18;;
37943;SDS011;23767;42.024;23.086;2023-07-16T07:41:39;11.32;;;7.68;;
37943;SDS011;23767;42.024;23.086;2023-07-16T07:44:05;9.77;;;7.13;;
37943;SDS011;23767;42.024;23.086;2023-07-16T07:46:31;13.15;;;7.05;;
37943;SDS011;23767;42.024;23.086;2023-07-16T07:48:57;10.73;;;6.75;;
37943;SDS011;23767;42.024;23.086;2023-07-16T07:51:23;11.90;;;7.18;;
37943;SDS011;23767;42.024;23.086;2023-07-16T07:53:49;15.02;;;7.90;;
37943;SDS011;23767;42.024;23.086;2023-07-16T07:56:15;11.38;;;6.70;;
37943;SDS011;23767;42.024;23.086;2023-07-16T07:58:41;12.18;;;7.28;;
37943;SDS011;23767;42.024;23.086;2023-07-16T08:01:08;11.40;;;7.00;;
37943;SDS011;23767;42.024;23.086;2023-07-16T08:03:34;12.38;;;6.35;;
37943;SDS011;23767;42.024;23.086;2023-07-16T08:06:00;10.05;;;6.43;;
37943;SDS011;23767;42.024;23.086;2023-07-16T08:08:26;10.07;;;6.97;;
37943;SDS011;23767;42.024;23.086;2023-07-16T08:10:53;13.77;;;7.13;;
37943;SDS011;23767;42.024;23.086;2023-07-16T08:13:19;12.63;;;7.32;;
37943;SDS011;23767;42.024;23.086;2023-07-16T08:15:45;10.05;;;7.43;;
37943;SDS011;23767;42.024;23.086;2023-07-16T08:18:13;10.60;;;7.30;;
37943;SDS011;23767;42.024;23.086;2023-07-16T08:20:39;14.48;;;7.38;;
37943;SDS011;23767;42.024;23.086;2023-07-16T08:23:06;11.23;;;7.00;;
37943;SDS011;23767;42.024;23.086;2023-07-16T08:25:32;12.40;;;7.20;;
37943;SDS011;23767;42.024;23.086;2023-07-16T08:27:58;8.80;;;6.30;;
37943;SDS011;23767;42.024;23.086;2023-07-16T08:30:24;11.18;;;7.60;;
37943;SDS011;23767;42.024;23.086;2023-07-16T08:32:50;11.20;;;7.22;;
37943;SDS011;23767;42.024;23.086;2023-07-16T08:35:16;13.45;;;7.50;;
37943;SDS011;23767;42.024;23.086;2023-07-16T08:37:43;9.75;;;7.10;;
37943;SDS011;23767;42.024;23.086;2023-07-16T08:40:09;11.55;;;7.03;;
37943;SDS011;23767;42.024;23.086;2023-07-16T08:42:36;11.40;;;6.78;;
37943;SDS011;23767;42.024;23.086;2023-07-16T08:45:04;14.48;;;6.82;;
37943;SDS011;23767;42.024;23.086;2023-07-16T08:47:32;12.25;;;6.80;;
37943;SDS011;23767;42.024;23.086;2023-07-16T08:49:58;12.60;;;7.28;;
37943;SDS011;23767;42.024;23.086;2023-07-16T08:52:25;15.23;;;7.03;;
37943;SDS011;23767;42.024;23.086;2023-07-16T08:54:52;12.27;;;7.13;;
37943;SDS011;23767;42.024;23.086;2023-07-16T08:57:18;12.50;;;6.35;;
37943;SDS011;23767;42.024;23.086;2023-07-16T08:59:47;10.65;;;7.05;;
37943;SDS011;23767;42.024;23.086;2023-07-16T09:02:14;9.02;;;6.65;;
37943;SDS011;23767;42.024;23.086;2023-07-16T09:04:40;14.55;;;7.32;;
37943;SDS011;23767;42.024;23.086;2023-07-16T09:07:06;10.13;;;6.75;;
37943;SDS011;23767;42.024;23.086;2023-07-16T09:09:32;13.88;;;7.05;;
37943;SDS011;23767;42.024;23.086;2023-07-16T09:11:58;14.63;;;7.38;;
37943;SDS011;23767;42.024;23.086;2023-07-16T09:14:24;12.13;;;7.10;;
37943;SDS011;23767;42.024;23.086;2023-07-16T09:16:50;10.13;;;7.18;;
37943;SDS011;23767;42.024;23.086;2023-07-16T09:19:16;11.75;;;7.10;;
37943;SDS011;23767;42.024;23.086;2023-07-16T09:21:50;12.32;;;7.05;;
37943;SDS011;23767;42.024;23.086;2023-07-16T09:24:16;11.57;;;7.10;;
37943;SDS011;23767;42.024;23.086;2023-07-16T09:26:49;15.73;;;7.45;;
37943;SDS011;23767;42.024;23.086;2023-07-16T09:29:16;14.52;;;7.30;;
37943;SDS011;23767;42.024;23.086;2023-07-16T09:31:58;15.10;;;6.97;;
37943;SDS011;23767;42.024;23.086;2023-07-16T09:34:26;11.98;;;6.88;;
37943;SDS011;23767;42.024;23.086;2023-07-16T09:36:52;13.18;;;6.63;;
37943;SDS011;23767;42.024;23.086;2023-07-16T09:39:19;14.85;;;6.75;;
37943;SDS011;23767;42.024;23.086;2023-07-16T09:41:48;11.88;;;6.78;;
37943;SDS011;23767;42.024;23.086;2023-07-16T09:44:15;11.13;;;7.18;;
37943;SDS011;23767;42.024;23.086;2023-07-16T09:46:42;12.90;;;6.18;;
37943;SDS011;23767;42.024;23.086;2023-07-16T09:49:08;11.68;;;6.90;;
37943;SDS011;23767;42.024;23.086;2023-07-16T09:51:38;9.30;;;6.65;;
37943;SDS011;23767;42.024;23.086;2023-07-16T09:54:04;10.35;;;6.85;;
37943;SDS011;23767;42.024;23.086;2023-07-16T09:56:41;11.52;;;7.03;;
37943;SDS011;23767;42.024;23.086;2023-07-16T09:59:08;11.90;;;7.30;;
37943;SDS011;23767;42.024;23.086;2023-07-16T10:01:36;11.23;;;6.85;;
37943;SDS011;23767;42.024;23.086;2023-07-16T10:06:58;14.32;;;7.45;;
37943;SDS011;23767;42.024;23.086;2023-07-16T10:09:58;12.85;;;7.18;;
37943;SDS011;23767;42.024;23.086;2023-07-16T10:12:17;14.70;;;7.20;;
37943;SDS011;23767;42.024;23.086;2023-07-16T10:14:48;13.00;;;7.13;;
37943;SDS011;23767;42.024;23.086;2023-07-16T10:17:24;12.48;;;7.65;;
37943;SDS011;23767;42.024;23.086;2023-07-16T10:25:08;11.63;;;7.28;;
37943;SDS011;23767;42.024;23.086;2023-07-16T10:27:35;9.38;;;6.90;;
37943;SDS011;23767;42.024;23.086;2023-07-16T10:30:01;15.98;;;7.80;;
37943;SDS011;23767;42.024;23.086;2023-07-16T10:32:28;11.10;;;7.32;;
37943;SDS011;23767;42.024;23.086;2023-07-16T10:34:55;12.15;;;7.57;;
37943;SDS011;23767;42.024;23.086;2023-07-16T10:37:21;14.90;;;6.85;;
37943;SDS011;23767;42.024;23.086;2023-07-16T10:39:51;14.95;;;6.97;;
37943;SDS011;23767;42.024;23.086;2023-07-16T10:42:17;11.65;;;6.82;;
37943;SDS011;23767;42.024;23.086;2023-07-16T10:44:44;11.52;;;7.38;;
37943;SDS011;23767;42.024;23.086;2023-07-16T10:47:18;10.27;;;6.03;;
37943;SDS011;23767;42.024;23.086;2023-07-16T10:49:46;8.63;;;6.47;;
37943;SDS011;23767;42.024;23.086;2023-07-16T10:52:12;8.93;;;6.43;;
37943;SDS011;23767;42.024;23.086;2023-07-16T10:54:39;10.55;;;6.00;;
37943;SDS011;23767;42.024;23.086;2023-07-16T10:57:05;8.60;;;6.20;;
37943;SDS011;23767;42.024;23.086;2023-07-16T10:59:31;11.38;;;6.75;;
37943;SDS011;23767;42.024;23.086;2023-07-16T11:01:58;10.50;;;5.93;;
37943;SDS011;23767;42.024;23.086;2023-07-16T11:04:24;11.32;;;6.18;;
37943;SDS011;23767;42.024;23.086;2023-07-16T11:06:50;8.82;;;5.65;;
37943;SDS011;23767;42.024;23.086;2023-07-16T11:09:16;11.68;;;6.28;;
37943;SDS011;23767;42.024;23.086;2023-07-16T11:11:42;12.90;;;6.68;;
37943;SDS011;23767;42.024;23.086;2023-07-16T11:14:08;12.50;;;6.20;;
37943;SDS011;23767;42.024;23.086;2023-07-16T11:16:34;10.82;;;6.03;;
37943;SDS011;23767;42.024;23.086;2023-07-16T11:19:02;10.63;;;6.38;;
37943;SDS011;23767;42.024;23.086;2023-07-16T11:21:28;13.60;;;5.82;;
37943;SDS011;23767;42.024;23.086;2023-07-16T11:23:54;15.65;;;6.00;;
37943;SDS011;23767;42.024;23.086;2023-07-16T11:26:20;11.32;;;5.07;;
37943;SDS011;23767;42.024;23.086;2023-07-16T11:28:49;9.05;;;4.97;;
37943;SDS011;23767;42.024;23.086;2023-07-16T11:31:15;8.80;;;5.10;;
37943;SDS011;23767;42.024;23.086;2023-07-16T11:33:42;9.75;;;5.60;;
37943;SDS011;23767;42.024;23.086;2023-07-16T11:36:08;11.30;;;5.75;;
37943;SDS011;23767;42.024;23.086;2023-07-16T11:38:38;8.23;;;5.28;;
37943;SDS011;23767;42.024;23.086;2023-07-16T11:41:04;10.50;;;5.32;;
37943;SDS011;23767;42.024;23.086;2023-07-16T11:43:33;9.57;;;5.20;;
37943;SDS011;23767;42.024;23.086;2023-07-16T11:46:00;9.10;;;5.13;;
37943;SDS011;23767;42.024;23.086;2023-07-16T11:48:26;9.52;;;4.72;;
37943;SDS011;23767;42.024;23.086;2023-07-16T11:50:52;7.43;;;5.05;;
37943;SDS011;23767;42.024;23.086;2023-07-16T11:53:18;11.50;;;4.95;;
37943;SDS011;23767;42.024;23.086;2023-07-16T11:55:44;7.82;;;5.05;;
37943;SDS011;23767;42.024;23.086;2023-07-16T11:58:10;9.23;;;5.43;;
37943;SDS011;23767;42.024;23.086;2023-07-16T12:00:36;10.57;;;4.90;;
37943;SDS011;23767;42.024;23.086;2023-07-16T12:03:02;8.18;;;5.18;;
37943;SDS011;23767;42.024;23.086;2023-07-16T12:05:28;7.85;;;5.05;;
37943;SDS011;23767;42.024;23.086;2023-07-16T12:07:54;8.88;;;5.28;;
37943;SDS011;23767;42.024;23.086;2023-07-16T12:10:20;8.95;;;5.30;;
37943;SDS011;23767;42.024;23.086;2023-07-16T12:12:46;7.47;;;4.78;;
37943;SDS011;23767;42.024;23.086;2023-07-16T12:15:12;7.63;;;5.38;;
37943;SDS011;23767;42.024;23.086;2023-07-16T12:17:38;9.73;;;4.90;;
37943;SDS011;23767;42.024;23.086;2023-07-16T12:20:05;10.60;;;4.53;;
37943;SDS011;23767;42.024;23.086;2023-07-16T12:22:31;9.75;;;4.70;;
37943;SDS011;23767;42.024;23.086;2023-07-16T12:24:57;8.60;;;4.63;;
37943;SDS011;23767;42.024;23.086;2023-07-16T12:27:23;11.65;;;4.80;;
37943;SDS011;23767;42.024;23.086;2023-07-16T12:29:49;8.57;;;5.20;;
37943;SDS011;23767;42.024;23.086;2023-07-16T12:32:17;7.95;;;4.82;;
37943;SDS011;23767;42.024;23.086;2023-07-16T12:34:43;7.07;;;4.30;;
37943;SDS011;23767;42.024;23.086;2023-07-16T12:37:09;12.10;;;4.53;;
37943;SDS011;23767;42.024;23.086;2023-07-16T12:39:35;10.73;;;4.15;;
37943;SDS011;23767;42.024;23.086;2023-07-16T12:42:01;7.10;;;3.90;;
37943;SDS011;23767;42.024;23.086;2023-07-16T12:44:28;7.30;;;3.95;;
37943;SDS011;23767;42.024;23.086;2023-07-16T12:46:54;7.70;;;3.83;;
37943;SDS011;23767;42.024;23.086;2023-07-16T12:49:20;8.10;;;4.50;;
37943;SDS011;23767;42.024;23.086;2023-07-16T12:51:46;6.13;;;3.67;;
37943;SDS011;23767;42.024;23.086;2023-07-16T12:54:12;7.25;;;4.15;;
37943;SDS011;23767;42.024;23.086;2023-07-16T12:56:38;6.07;;;4.00;;
37943;SDS011;23767;42.024;23.086;2023-07-16T12:59:04;8.20;;;4.55;;
37943;SDS011;23767;42.024;23.086;2023-07-16T13:01:30;8.00;;;4.07;;
37943;SDS011;23767;42.024;23.086;2023-07-16T13:03:56;7.50;;;4.00;;
37943;SDS011;23767;42.024;23.086;2023-07-16T13:06:22;8.70;;;3.72;;
37943;SDS011;23767;42.024;23.086;2023-07-16T13:08:48;7.53;;;3.80;;
37943;SDS011;23767;42.024;23.086;2023-07-16T13:11:14;10.55;;;3.95;;
37943;SDS011;23767;42.024;23.086;2023-07-16T13:13:41;7.07;;;4.30;;
37943;SDS011;23767;42.024;23.086;2023-07-16T13:16:08;8.40;;;4.53;;
37943;SDS011;23767;42.024;23.086;2023-07-16T13:18:34;10.60;;;4.80;;
37943;SDS011;23767;42.024;23.086;2023-07-16T13:21:00;8.55;;;4.28;;
37943;SDS011;23767;42.024;23.086;2023-07-16T13:23:26;8.85;;;4.82;;
37943;SDS011;23767;42.024;23.086;2023-07-16T13:25:52;11.55;;;4.63;;
37943;SDS011;23767;42.024;23.086;2023-07-16T13:28:19;12.48;;;4.88;;
37943;SDS011;23767;42.024;23.086;2023-07-16T13:30:46;9.20;;;4.68;;
37943;SDS011;23767;42.024;23.086;2023-07-16T13:33:12;9.55;;;4.38;;
37943;SDS011;23767;42.024;23.086;2023-07-16T13:35:38;10.27;;;5.00;;
37943;SDS011;23767;42.024;23.086;2023-07-16T13:38:04;8.52;;;4.97;;
37943;SDS011;23767;42.024;23.086;2023-07-16T13:40:30;6.65;;;4.60;;
37943;SDS011;23767;42.024;23.086;2023-07-16T13:42:56;8.45;;;4.72;;
37943;SDS011;23767;42.024;23.086;2023-07-16T13:45:23;9.63;;;4.95;;
37943;SDS011;23767;42.024;23.086;2023-07-16T13:47:49;7.97;;;4.88;;
37943;SDS011;23767;42.024;23.086;2023-07-16T13:50:20;11.75;;;5.15;;
37943;SDS011;23767;42.024;23.086;2023-07-16T13:52:46;8.00;;;5.00;;
37943;SDS011;23767;42.024;23.086;2023-07-16T13:55:12;12.13;;;5.68;;
37943;SDS011;23767;42.024;23.086;2023-07-16T13:57:38;12.65;;;5.30;;
37943;SDS011;23767;42.024;23.086;2023-07-16T14:00:04;11.45;;;5.53;;
37943;SDS011;23767;42.024;23.086;2023-07-16T14:02:30;8.27;;;5.10;;
37943;SDS011;23767;42.024;23.086;2023-07-16T14:04:56;9.35;;;5.57;;
37943;SDS011;23767;42.024;23.086;2023-07-16T14:07:22;10.65;;;5.60;;
37943;SDS011;23767;42.024;23.086;2023-07-16T14:09:49;9.77;;;5.43;;
37943;SDS011;23767;42.024;23.086;2023-07-16T14:12:15;11.05;;;5.55;;
37943;SDS011;23767;42.024;23.086;2023-07-16T14:14:41;10.90;;;5.15;;
37943;SDS011;23767;42.024;23.086;2023-07-16T14:17:07;9.82;;;5.32;;
37943;SDS011;23767;42.024;23.086;2023-07-16T14:19:33;10.48;;;5.30;;
37943;SDS011;23767;42.024;23.086;2023-07-16T14:21:59;10.45;;;5.00;;
37943;SDS011;23767;42.024;23.086;2023-07-16T14:24:25;10.57;;;5.90;;
37943;SDS011;23767;42.024;23.086;2023-07-16T14:26:51;12.10;;;5.13;;
37943;SDS011;23767;42.024;23.086;2023-07-16T14:29:17;8.88;;;5.15;;
37943;SDS011;23767;42.024;23.086;2023-07-16T14:31:43;9.02;;;4.90;;
37943;SDS011;23767;42.024;23.086;2023-07-16T14:34:09;8.98;;;5.22;;